sensor_id;sensor_type;location;lat;lon;timestamp;pressure;altitude;pressure_sealevel;temperature;humidity
45872;BME280;32333;55.844;-3.210;2023-07-16T00:01:49;96933.75;;;12.91;100.00
45872;BME280;32333;55.844;-3.210;2023-07-16T00:04:17;96936.00;;;12.76;100.00
45872;BME280;32333;55.844;-3.210;2023-07-16T00:06:44;96939.26;;;12.17;100.00
45872;BME280;32333;55.844;-3.210;2023-07-16T00:09:11;96940.51;;;12.01;100.00
45872;BME280;32333;55.844;-3.210;2023-07-16T00:11:38;96944.38;;;11.79;100.00
45872;BME280;32333;55.844;-3.210;2023-07-16T00:14:35;96945.57;;;11.50;100.00
45872;BME280;32333;55.844;-3.210;2023-07-16T00:17:03;96952.22;;;12.32;100.00
45872;BME280;32333;55.844;-3.210;2023-07-16T00:19:31;96953.95;;;11.17;100.00
45872;BME280;32333;55.844;-3.210;2023-07-16T00:21:59;96956.28;;;10.94;100.00
45872;BME280;32333;55.844;-3.210;2023-07-16T00:24:26;96958.37;;;10.92;100.00
45872;BME280;32333;55.844;-3.210;2023-07-16T00:26:54;96959.93;;;11.67;100.00
45872;BME280;32333;55.844;-3.210;2023-07-16T00:29:22;96964.18;;;11.48;100.00
45872;BME280;32333;55.844;-3.210;2023-07-16T00:31:49;96962.18;;;11.28;100.00
45872;BME280;32333;55.844;-3.210;2023-07-16T00:34:16;96969.52;;;11.93;100.00
45872;BME280;32333;55.844;-3.210;2023-07-16T00:36:44;96979.61;;;11.46;100.00
45872;BME280;32333;55.844;-3.210;2023-07-16T00:39:11;96978.19;;;12.10;100.00
45872;BME280;32333;55.844;-3.210;2023-07-16T00:41:38;96979.08;;;11.88;100.00
45872;BME280;32333;55.844;-3.210;2023-07-16T00:44:36;96981.31;;;11.69;100.00
45872;BME280;32333;55.844;-3.210;2023-07-16T00:47:03;96987.02;;;11.68;100.00
45872;BME280;32333;55.844;-3.210;2023-07-16T00:49:31;96982.85;;;11.96;100.00
45872;BME280;32333;55.844;-3.210;2023-07-16T00:52:00;96980.74;;;12.45;100.00
45872;BME280;32333;55.844;-3.210;2023-07-16T00:54:28;96981.53;;;12.50;100.00
45872;BME280;32333;55.844;-3.210;2023-07-16T00:57:00;96986.20;;;11.55;100.00
45872;BME280;32333;55.844;-3.210;2023-07-16T00:59:28;96988.50;;;11.63;100.00
45872;BME280;32333;55.844;-3.210;2023-07-16T01:01:56;96993.21;;;11.82;100.00
45872;BME280;32333;55.844;-3.210;2023-07-16T01:04:24;96997.10;;;11.37;100.00
45872;BME280;32333;55.844;-3.210;2023-07-16T01:06:55;97001.82;;;11.98;100.00
45872;BME280;32333;55.844;-3.210;2023-07-16T01:09:23;96995.17;;;11.19;100.00
45872;BME280;32333;55.844;-3.210;2023-07-16T01:11:53;97001.23;;;11.31;100.00
45872;BME280;32333;55.844;-3.210;2023-07-16T01:14:36;97006.16;;;11.48;100.00
45872;BME280;32333;55.844;-3.210;2023-07-16T01:17:05;97007.44;;;11.96;100.00
45872;BME280;32333;55.844;-3.210;2023-07-16T01:19:34;97004.65;;;11.56;100.00
45872;BME280;32333;55.844;-3.210;2023-07-16T01:22:18;97007.76;;;11.39;100.00
45872;BME280;32333;55.844;-3.210;2023-07-16T01:25:03;97007.79;;;11.43;100.00
45872;BME280;32333;55.844;-3.210;2023-07-16T01:27:57;97013.50;;;11.04;100.00
45872;BME280;32333;55.844;-3.210;2023-07-16T01:30:27;97019.72;;;10.98;100.00
45872;BME280;32333;55.844;-3.210;2023-07-16T01:32:56;97025.46;;;11.87;100.00
45872;BME280;32333;55.844;-3.210;2023-07-16T01:35:24;97021.98;;;11.41;100.00
45872;BME280;32333;55.844;-3.210;2023-07-16T01:37:54;97026.26;;;11.78;100.00
45872;BME280;32333;55.844;-3.210;2023-07-16T01:40:21;97031.22;;;12.02;100.00
45872;BME280;32333;55.844;-3.210;2023-07-16T01:44:36;97032.88;;;12.13;100.00
45872;BME280;32333;55.844;-3.210;2023-07-16T01:47:11;97041.26;;;11.92;100.00
45872;BME280;32333;55.844;-3.210;2023-07-16T01:49:41;97039.90;;;11.86;100.00
45872;BME280;32333;55.844;-3.210;2023-07-16T01:52:09;97043.85;;;12.41;100.00
45872;BME280;32333;55.844;-3.210;2023-07-16T01:54:36;97046.70;;;12.50;100.00
45872;BME280;32333;55.844;-3.210;2023-07-16T01:57:05;97048.46;;;12.21;100.00
45872;BME280;32333;55.844;-3.210;2023-07-16T01:59:32;97050.00;;;11.86;100.00
45872;BME280;32333;55.844;-3.210;2023-07-16T02:02:00;97057.60;;;11.41;100.00
45872;BME280;32333;55.844;-3.210;2023-07-16T02:04:27;97058.25;;;11.79;100.00
45872;BME280;32333;55.844;-3.210;2023-07-16T02:06:55;97057.43;;;11.47;100.00
45872;BME280;32333;55.844;-3.210;2023-07-16T02:09:22;97057.67;;;11.42;100.00
45872;BME280;32333;55.844;-3.210;2023-07-16T02:11:49;97057.34;;;11.94;100.00
45872;BME280;32333;55.844;-3.210;2023-07-16T02:14:36;97060.26;;;11.41;100.00
45872;BME280;32333;55.844;-3.210;2023-07-16T02:17:04;97058.49;;;12.14;100.00
45872;BME280;32333;55.844;-3.210;2023-07-16T02:19:32;97061.26;;;11.38;100.00
45872;BME280;32333;55.844;-3.210;2023-07-16T02:21:59;97054.96;;;12.27;100.00
45872;BME280;32333;55.844;-3.210;2023-07-16T02:24:26;97057.01;;;11.92;100.00
45872;BME280;32333;55.844;-3.210;2023-07-16T02:26:53;97057.26;;;11.62;100.00
45872;BME280;32333;55.844;-3.210;2023-07-16T02:29:41;97055.07;;;12.00;100.00
45872;BME280;32333;55.844;-3.210;2023-07-16T02:32:09;97050.16;;;11.86;100.00
45872;BME280;32333;55.844;-3.210;2023-07-16T02:34:36;97056.95;;;11.91;100.00
45872;BME280;32333;55.844;-3.210;2023-07-16T02:37:05;97055.53;;;12.30;100.00
45872;BME280;32333;55.844;-3.210;2023-07-16T02:39:32;97050.31;;;11.33;100.00
45872;BME280;32333;55.844;-3.210;2023-07-16T02:42:00;97049.02;;;11.31;100.00
45872;BME280;32333;55.844;-3.210;2023-07-16T02:44:36;97054.42;;;11.24;100.00
45872;BME280;32333;55.844;-3.210;2023-07-16T02:47:04;97057.32;;;10.94;100.00
45872;BME280;32333;55.844;-3.210;2023-07-16T02:49:31;97062.39;;;10.88;100.00
45872;BME280;32333;55.844;-3.210;2023-07-16T02:51:59;97068.53;;;10.69;100.00
45872;BME280;32333;55.844;-3.210;2023-07-16T02:54:26;97068.27;;;11.46;100.00
45872;BME280;32333;55.844;-3.210;2023-07-16T02:56:54;97066.57;;;10.88;100.00
45872;BME280;32333;55.844;-3.210;2023-07-16T02:59:22;97068.69;;;11.18;100.00
45872;BME280;32333;55.844;-3.210;2023-07-16T03:01:50;97068.99;;;10.99;100.00
45872;BME280;32333;55.844;-3.210;2023-07-16T03:04:18;97073.55;;;11.35;100.00
45872;BME280;32333;55.844;-3.210;2023-07-16T03:06:46;97076.11;;;11.06;100.00
45872;BME280;32333;55.844;-3.210;2023-07-16T03:09:14;97079.79;;;11.10;100.00
45872;BME280;32333;55.844;-3.210;2023-07-16T03:11:41;97084.55;;;11.02;100.00
45872;BME280;32333;55.844;-3.210;2023-07-16T03:14:35;97082.73;;;11.02;100.00
45872;BME280;32333;55.844;-3.210;2023-07-16T03:17:03;97087.23;;;11.33;100.00
45872;BME280;32333;55.844;-3.210;2023-07-16T03:19:31;97088.30;;;11.19;100.00
45872;BME280;32333;55.844;-3.210;2023-07-16T03:21:59;97088.19;;;12.08;100.00
45872;BME280;32333;55.844;-3.210;2023-07-16T03:24:26;97090.29;;;10.54;100.00
45872;BME280;32333;55.844;-3.210;2023-07-16T03:26:53;97093.18;;;11.79;100.00
45872;BME280;32333;55.844;-3.210;2023-07-16T03:29:22;97093.09;;;11.58;100.00
45872;BME280;32333;55.844;-3.210;2023-07-16T03:31:49;97094.62;;;12.05;100.00
45872;BME280;32333;55.844;-3.210;2023-07-16T03:34:16;97100.15;;;11.89;100.00
45872;BME280;32333;55.844;-3.210;2023-07-16T03:36:44;97097.92;;;12.17;100.00
45872;BME280;32333;55.844;-3.210;2023-07-16T03:39:12;97097.93;;;12.42;100.00
45872;BME280;32333;55.844;-3.210;2023-07-16T03:41:39;97098.02;;;11.65;100.00
45872;BME280;32333;55.844;-3.210;2023-07-16T03:44:36;97102.00;;;11.38;100.00
45872;BME280;32333;55.844;-3.210;2023-07-16T03:47:03;97099.50;;;11.54;100.00
45872;BME280;32333;55.844;-3.210;2023-07-16T03:49:31;97103.63;;;11.30;100.00
45872;BME280;32333;55.844;-3.210;2023-07-16T03:51:59;97105.87;;;12.36;100.00
45872;BME280;32333;55.844;-3.210;2023-07-16T03:54:27;97101.53;;;11.83;100.00
45872;BME280;32333;55.844;-3.210;2023-07-16T03:56:54;97103.15;;;11.96;100.00
45872;BME280;32333;55.844;-3.210;2023-07-16T03:59:22;97105.92;;;12.69;100.00
45872;BME280;32333;55.844;-3.210;2023-07-16T04:01:50;97105.86;;;11.97;100.00
45872;BME280;32333;55.844;-3.210;2023-07-16T04:04:17;97108.93;;;12.40;100.00
45872;BME280;32333;55.844;-3.210;2023-07-16T04:06:44;97113.81;;;11.52;100.00
45872;BME280;32333;55.844;-3.210;2023-07-16T04:09:12;97119.95;;;11.44;100.00
45872;BME280;32333;55.844;-3.210;2023-07-16T04:11:39;97119.42;;;11.83;100.00
45872;BME280;32333;55.844;-3.210;2023-07-16T04:14:36;97124.22;;;12.07;100.00
45872;BME280;32333;55.844;-3.210;2023-07-16T04:17:03;97130.65;;;11.36;100.00
45872;BME280;32333;55.844;-3.210;2023-07-16T04:19:31;97134.51;;;11.66;100.00
45872;BME280;32333;55.844;-3.210;2023-07-16T04:21:59;97134.20;;;11.35;100.00
45872;BME280;32333;55.844;-3.210;2023-07-16T04:24:26;97133.88;;;11.35;100.00
45872;BME280;32333;55.844;-3.210;2023-07-16T04:26:54;97137.12;;;11.87;100.00
45872;BME280;32333;55.844;-3.210;2023-07-16T04:29:22;97139.13;;;11.95;100.00
45872;BME280;32333;55.844;-3.210;2023-07-16T04:31:49;97147.37;;;10.85;100.00
45872;BME280;32333;55.844;-3.210;2023-07-16T04:34:17;97153.57;;;11.89;100.00
45872;BME280;32333;55.844;-3.210;2023-07-16T04:36:45;97148.88;;;11.47;100.00
45872;BME280;32333;55.844;-3.210;2023-07-16T04:39:12;97165.35;;;11.67;100.00
45872;BME280;32333;55.844;-3.210;2023-07-16T04:41:40;97164.58;;;11.61;100.00
45872;BME280;32333;55.844;-3.210;2023-07-16T04:44:35;97158.24;;;11.72;100.00
45872;BME280;32333;55.844;-3.210;2023-07-16T04:47:02;97166.34;;;11.11;100.00
45872;BME280;32333;55.844;-3.210;2023-07-16T04:49:31;97173.11;;;11.71;100.00
45872;BME280;32333;55.844;-3.210;2023-07-16T04:51:59;97173.98;;;11.24;100.00
45872;BME280;32333;55.844;-3.210;2023-07-16T04:54:26;97176.04;;;11.58;100.00
45872;BME280;32333;55.844;-3.210;2023-07-16T04:56:53;97171.82;;;11.48;100.00
45872;BME280;32333;55.844;-3.210;2023-07-16T04:59:21;97167.55;;;12.32;100.00
45872;BME280;32333;55.844;-3.210;2023-07-16T05:01:48;97178.66;;;11.52;100.00
45872;BME280;32333;55.844;-3.210;2023-07-16T05:04:16;97182.24;;;11.74;100.00
45872;BME280;32333;55.844;-3.210;2023-07-16T05:06:43;97185.38;;;11.78;100.00
45872;BME280;32333;55.844;-3.210;2023-07-16T05:09:11;97188.28;;;11.87;100.00
45872;BME280;32333;55.844;-3.210;2023-07-16T05:11:39;97197.76;;;12.18;100.00
45872;BME280;32333;55.844;-3.210;2023-07-16T05:14:43;97200.25;;;11.68;100.00
45872;BME280;32333;55.844;-3.210;2023-07-16T05:17:11;97205.74;;;11.25;100.00
45872;BME280;32333;55.844;-3.210;2023-07-16T05:19:38;97211.48;;;11.30;100.00
45872;BME280;32333;55.844;-3.210;2023-07-16T05:22:06;97222.13;;;11.23;100.00
45872;BME280;32333;55.844;-3.210;2023-07-16T05:24:33;97223.75;;;11.68;100.00
45872;BME280;32333;55.844;-3.210;2023-07-16T05:27:01;97219.53;;;11.34;100.00
45872;BME280;32333;55.844;-3.210;2023-07-16T05:29:28;97227.25;;;11.67;100.00
45872;BME280;32333;55.844;-3.210;2023-07-16T05:31:56;97228.09;;;12.01;100.00
45872;BME280;32333;55.844;-3.210;2023-07-16T05:34:23;97229.46;;;11.52;100.00
45872;BME280;32333;55.844;-3.210;2023-07-16T05:36:53;97243.79;;;11.98;100.00
45872;BME280;32333;55.844;-3.210;2023-07-16T05:39:20;97249.44;;;11.94;100.00
45872;BME280;32333;55.844;-3.210;2023-07-16T05:41:48;97249.58;;;12.57;100.00
45872;BME280;32333;55.844;-3.210;2023-07-16T05:44:36;97253.25;;;12.70;100.00
45872;BME280;32333;55.844;-3.210;2023-07-16T05:47:04;97260.90;;;12.58;100.00
45872;BME280;32333;55.844;-3.210;2023-07-16T05:49:31;97257.06;;;12.78;100.00
45872;BME280;32333;55.844;-3.210;2023-07-16T05:51:59;97269.34;;;13.05;100.00
45872;BME280;32333;55.844;-3.210;2023-07-16T05:54:26;97270.82;;;11.72;100.00
45872;BME280;32333;55.844;-3.210;2023-07-16T05:56:53;97274.12;;;12.39;100.00
45872;BME280;32333;55.844;-3.210;2023-07-16T05:59:22;97271.81;;;12.29;100.00
45872;BME280;32333;55.844;-3.210;2023-07-16T06:01:50;97280.38;;;12.36;100.00
45872;BME280;32333;55.844;-3.210;2023-07-16T06:04:17;97281.53;;;12.36;100.00
45872;BME280;32333;55.844;-3.210;2023-07-16T06:06:46;97295.85;;;11.67;100.00
45872;BME280;32333;55.844;-3.210;2023-07-16T06:09:13;97299.57;;;11.66;100.00
45872;BME280;32333;55.844;-3.210;2023-07-16T06:11:40;97305.32;;;11.66;100.00
45872;BME280;32333;55.844;-3.210;2023-07-16T06:14:35;97319.98;;;11.70;100.00
45872;BME280;32333;55.844;-3.210;2023-07-16T06:17:03;97317.17;;;11.47;100.00
45872;BME280;32333;55.844;-3.210;2023-07-16T06:19:31;97327.92;;;11.24;100.00
45872;BME280;32333;55.844;-3.210;2023-07-16T06:21:59;97336.52;;;11.56;100.00
45872;BME280;32333;55.844;-3.210;2023-07-16T06:24:26;97347.33;;;11.85;100.00
45872;BME280;32333;55.844;-3.210;2023-07-16T06:26:53;97347.57;;;11.70;100.00
45872;BME280;32333;55.844;-3.210;2023-07-16T06:29:21;97344.80;;;11.24;100.00
45872;BME280;32333;55.844;-3.210;2023-07-16T06:31:55;97348.46;;;11.24;100.00
45872;BME280;32333;55.844;-3.210;2023-07-16T06:34:22;97348.49;;;12.40;100.00
45872;BME280;32333;55.844;-3.210;2023-07-16T06:36:49;97344.07;;;12.24;100.00
45872;BME280;32333;55.844;-3.210;2023-07-16T06:39:17;97350.55;;;11.81;100.00
45872;BME280;32333;55.844;-3.210;2023-07-16T06:41:45;97356.03;;;11.88;100.00
45872;BME280;32333;55.844;-3.210;2023-07-16T06:44:36;97362.05;;;12.10;100.00
45872;BME280;32333;55.844;-3.210;2023-07-16T06:47:03;97360.63;;;11.70;100.00
45872;BME280;32333;55.844;-3.210;2023-07-16T06:49:31;97359.24;;;11.18;100.00
45872;BME280;32333;55.844;-3.210;2023-07-16T06:52:00;97364.65;;;12.04;100.00
45872;BME280;32333;55.844;-3.210;2023-07-16T06:54:29;97357.37;;;12.52;100.00
45872;BME280;32333;55.844;-3.210;2023-07-16T06:56:57;97362.19;;;12.33;100.00
45872;BME280;32333;55.844;-3.210;2023-07-16T06:59:25;97365.50;;;12.57;100.00
45872;BME280;32333;55.844;-3.210;2023-07-16T07:01:52;97371.03;;;11.74;100.00
45872;BME280;32333;55.844;-3.210;2023-07-16T07:04:20;97387.12;;;11.77;100.00
45872;BME280;32333;55.844;-3.210;2023-07-16T07:06:48;97380.12;;;11.92;100.00
45872;BME280;32333;55.844;-3.210;2023-07-16T07:09:15;97379.23;;;11.77;100.00
45872;BME280;32333;55.844;-3.210;2023-07-16T07:11:42;97383.44;;;11.52;100.00
45872;BME280;32333;55.844;-3.210;2023-07-16T07:14:36;97391.62;;;11.82;100.00
45872;BME280;32333;55.844;-3.210;2023-07-16T07:17:03;97392.70;;;11.29;100.00
45872;BME280;32333;55.844;-3.210;2023-07-16T07:19:31;97397.39;;;12.10;100.00
45872;BME280;32333;55.844;-3.210;2023-07-16T07:22:00;97395.66;;;11.63;100.00
45872;BME280;32333;55.844;-3.210;2023-07-16T07:24:28;97399.69;;;11.80;100.00
45872;BME280;32333;55.844;-3.210;2023-07-16T07:26:55;97395.53;;;11.47;100.00
45872;BME280;32333;55.844;-3.210;2023-07-16T07:29:23;97393.92;;;11.92;100.00
45872;BME280;32333;55.844;-3.210;2023-07-16T07:31:52;97405.83;;;11.22;100.00
45872;BME280;32333;55.844;-3.210;2023-07-16T07:34:21;97405.63;;;11.46;100.00
45872;BME280;32333;55.844;-3.210;2023-07-16T07:36:48;97413.98;;;11.87;100.00
45872;BME280;32333;55.844;-3.210;2023-07-16T07:39:15;97424.08;;;11.55;100.00
45872;BME280;32333;55.844;-3.210;2023-07-16T07:41:42;97429.31;;;11.80;100.00
45872;BME280;32333;55.844;-3.210;2023-07-16T07:44:35;97443.34;;;11.90;100.00
45872;BME280;32333;55.844;-3.210;2023-07-16T07:47:03;97437.76;;;11.41;100.00
45872;BME280;32333;55.844;-3.210;2023-07-16T07:49:30;97448.12;;;11.69;100.00
45872;BME280;32333;55.844;-3.210;2023-07-16T07:51:58;97458.90;;;11.75;100.00
45872;BME280;32333;55.844;-3.210;2023-07-16T07:54:25;97460.62;;;12.74;100.00
45872;BME280;32333;55.844;-3.210;2023-07-16T07:56:53;97471.30;;;12.46;100.00
45872;BME280;32333;55.844;-3.210;2023-07-16T07:59:21;97478.86;;;12.80;100.00
45872;BME280;32333;55.844;-3.210;2023-07-16T08:01:48;97482.46;;;12.05;100.00
45872;BME280;32333;55.844;-3.210;2023-07-16T08:04:15;97479.36;;;11.98;100.00
45872;BME280;32333;55.844;-3.210;2023-07-16T08:06:42;97486.12;;;11.91;100.00
45872;BME280;32333;55.844;-3.210;2023-07-16T08:09:10;97486.35;;;12.28;100.00
45872;BME280;32333;55.844;-3.210;2023-07-16T08:11:37;97497.20;;;12.18;100.00
45872;BME280;32333;55.844;-3.210;2023-07-16T08:14:35;97496.34;;;12.43;100.00
45872;BME280;32333;55.844;-3.210;2023-07-16T08:17:02;97502.60;;;12.19;100.00
45872;BME280;32333;55.844;-3.210;2023-07-16T08:19:30;97511.67;;;12.75;100.00
45872;BME280;32333;55.844;-3.210;2023-07-16T08:21:58;97510.19;;;12.60;100.00
45872;BME280;32333;55.844;-3.210;2023-07-16T08:24:26;97514.52;;;12.23;100.00
45872;BME280;32333;55.844;-3.210;2023-07-16T08:26:53;97524.52;;;11.98;100.00
45872;BME280;32333;55.844;-3.210;2023-07-16T08:29:22;97528.09;;;12.19;100.00
45872;BME280;32333;55.844;-3.210;2023-07-16T08:31:49;97535.63;;;12.32;100.00
45872;BME280;32333;55.844;-3.210;2023-07-16T08:34:16;97538.08;;;12.16;100.00
45872;BME280;32333;55.844;-3.210;2023-07-16T08:36:44;97547.71;;;12.06;100.00
45872;BME280;32333;55.844;-3.210;2023-07-16T08:39:11;97562.88;;;11.46;100.00
45872;BME280;32333;55.844;-3.210;2023-07-16T08:41:39;97551.26;;;11.90;100.00
45872;BME280;32333;55.844;-3.210;2023-07-16T08:44:36;97560.23;;;11.90;100.00
45872;BME280;32333;55.844;-3.210;2023-07-16T08:47:05;97568.95;;;11.84;100.00
45872;BME280;32333;55.844;-3.210;2023-07-16T08:49:34;97571.76;;;12.02;100.00
45872;BME280;32333;55.844;-3.210;2023-07-16T08:52:02;97569.81;;;12.24;100.00
45872;BME280;32333;55.844;-3.210;2023-07-16T08:54:29;97571.79;;;11.96;100.00
45872;BME280;32333;55.844;-3.210;2023-07-16T08:56:57;97577.60;;;11.86;100.00
45872;BME280;32333;55.844;-3.210;2023-07-16T08:59:26;97582.75;;;12.20;100.00
45872;BME280;32333;55.844;-3.210;2023-07-16T09:01:54;97590.67;;;11.89;100.00
45872;BME280;32333;55.844;-3.210;2023-07-16T09:04:23;97595.67;;;11.59;100.00
45872;BME280;32333;55.844;-3.210;2023-07-16T09:06:50;97604.62;;;11.57;100.00
45872;BME280;32333;55.844;-3.210;2023-07-16T09:09:22;97599.37;;;11.81;100.00
45872;BME280;32333;55.844;-3.210;2023-07-16T09:11:51;97606.93;;;12.10;100.00
45872;BME280;32333;55.844;-3.210;2023-07-16T09:14:35;97616.36;;;12.14;100.00
45872;BME280;32333;55.844;-3.210;2023-07-16T09:17:04;97606.95;;;11.44;100.00
45872;BME280;32333;55.844;-3.210;2023-07-16T09:19:32;97611.00;;;11.80;100.00
45872;BME280;32333;55.844;-3.210;2023-07-16T09:22:00;97616.11;;;12.59;100.00
45872;BME280;32333;55.844;-3.210;2023-07-16T09:24:29;97600.05;;;13.61;100.00
45872;BME280;32333;55.844;-3.210;2023-07-16T09:26:57;97615.82;;;12.88;100.00
45872;BME280;32333;55.844;-3.210;2023-07-16T09:29:25;97608.84;;;12.67;100.00
45872;BME280;32333;55.844;-3.210;2023-07-16T09:31:54;97603.42;;;13.67;100.00
45872;BME280;32333;55.844;-3.210;2023-07-16T09:34:22;97606.67;;;13.21;100.00
45872;BME280;32333;55.844;-3.210;2023-07-16T09:36:50;97607.52;;;13.62;100.00
45872;BME280;32333;55.844;-3.210;2023-07-16T09:39:18;97614.76;;;13.42;100.00
45872;BME280;32333;55.844;-3.210;2023-07-16T09:41:48;97614.47;;;13.61;100.00
45872;BME280;32333;55.844;-3.210;2023-07-16T09:44:35;97615.06;;;13.51;100.00
45872;BME280;32333;55.844;-3.210;2023-07-16T09:47:03;97630.20;;;13.13;100.00
45872;BME280;32333;55.844;-3.210;2023-07-16T09:49:31;97622.96;;;13.62;100.00
45872;BME280;32333;55.844;-3.210;2023-07-16T09:51:58;97624.97;;;13.26;100.00
45872;BME280;32333;55.844;-3.210;2023-07-16T09:54:32;97630.25;;;13.25;100.00
45872;BME280;32333;55.844;-3.210;2023-07-16T09:57:01;97626.03;;;14.06;100.00
45872;BME280;32333;55.844;-3.210;2023-07-16T09:59:32;97624.05;;;13.45;100.00
45872;BME280;32333;55.844;-3.210;2023-07-16T10:02:00;97635.91;;;13.29;100.00
45872;BME280;32333;55.844;-3.210;2023-07-16T10:04:38;97642.24;;;13.13;100.00
45872;BME280;32333;55.844;-3.210;2023-07-16T10:07:05;97651.00;;;13.32;100.00
45872;BME280;32333;55.844;-3.210;2023-07-16T10:09:36;97665.41;;;12.83;100.00
45872;BME280;32333;55.844;-3.210;2023-07-16T10:14:40;97679.53;;;13.59;100.00
45872;BME280;32333;55.844;-3.210;2023-07-16T10:17:07;97685.31;;;13.23;100.00
45872;BME280;32333;55.844;-3.210;2023-07-16T10:19:47;97693.60;;;14.06;100.00
45872;BME280;32333;55.844;-3.210;2023-07-16T10:22:15;97696.84;;;12.98;100.00
45872;BME280;32333;55.844;-3.210;2023-07-16T10:24:43;97684.26;;;13.48;100.00
45872;BME280;32333;55.844;-3.210;2023-07-16T10:27:13;97718.68;;;12.89;100.00
45872;BME280;32333;55.844;-3.210;2023-07-16T10:29:41;97709.02;;;12.72;100.00
45872;BME280;32333;55.844;-3.210;2023-07-16T10:32:09;97715.28;;;12.80;100.00
45872;BME280;32333;55.844;-3.210;2023-07-16T10:34:36;97721.55;;;13.29;100.00
45872;BME280;32333;55.844;-3.210;2023-07-16T10:37:06;97730.14;;;12.76;100.00
45872;BME280;32333;55.844;-3.210;2023-07-16T10:39:34;97730.23;;;13.15;100.00
45872;BME280;32333;55.844;-3.210;2023-07-16T10:44:35;97752.40;;;13.19;100.00
45872;BME280;32333;55.844;-3.210;2023-07-16T10:47:03;97754.47;;;13.47;100.00
45872;BME280;32333;55.844;-3.210;2023-07-16T10:49:30;97769.24;;;13.33;100.00
45872;BME280;32333;55.844;-3.210;2023-07-16T10:52:00;97779.65;;;13.75;100.00
45872;BME280;32333;55.844;-3.210;2023-07-16T10:54:37;97772.16;;;13.65;100.00
45872;BME280;32333;55.844;-3.210;2023-07-16T10:57:04;97770.82;;;14.35;100.00
45872;BME280;32333;55.844;-3.210;2023-07-16T10:59:33;97772.63;;;13.59;100.00
45872;BME280;32333;55.844;-3.210;2023-07-16T11:02:00;97774.62;;;14.54;100.00
45872;BME280;32333;55.844;-3.210;2023-07-16T11:04:34;97791.76;;;14.54;100.00
45872;BME280;32333;55.844;-3.210;2023-07-16T11:07:05;97791.79;;;14.57;100.00
45872;BME280;32333;55.844;-3.210;2023-07-16T11:09:32;97797.90;;;14.32;100.00
45872;BME280;32333;55.844;-3.210;2023-07-16T11:14:35;97812.97;;;14.48;100.00
45872;BME280;32333;55.844;-3.210;2023-07-16T11:17:05;97819.59;;;14.36;100.00
45872;BME280;32333;55.844;-3.210;2023-07-16T11:19:35;97824.26;;;14.63;100.00
45872;BME280;32333;55.844;-3.210;2023-07-16T11:22:05;97828.68;;;14.80;100.00
45872;BME280;32333;55.844;-3.210;2023-07-16T11:24:38;97833.89;;;15.07;100.00
45872;BME280;32333;55.844;-3.210;2023-07-16T11:27:13;97845.41;;;14.44;100.00
45872;BME280;32333;55.844;-3.210;2023-07-16T11:29:45;97846.67;;;14.19;100.00
45872;BME280;32333;55.844;-3.210;2023-07-16T11:32:25;97844.79;;;14.43;100.00
45872;BME280;32333;55.844;-3.210;2023-07-16T11:34:53;97846.67;;;13.89;100.00
45872;BME280;32333;55.844;-3.210;2023-07-16T11:37:20;97855.07;;;13.61;100.00
45872;BME280;32333;55.844;-3.210;2023-07-16T11:39:48;97869.66;;;14.21;100.00
45872;BME280;32333;55.844;-3.210;2023-07-16T11:44:36;97871.91;;;13.69;100.00
45872;BME280;32333;55.844;-3.210;2023-07-16T11:47:04;97875.94;;;13.77;100.00
45872;BME280;32333;55.844;-3.210;2023-07-16T11:49:31;97876.46;;;13.97;100.00
45872;BME280;32333;55.844;-3.210;2023-07-16T11:51:59;97871.93;;;13.30;100.00
45872;BME280;32333;55.844;-3.210;2023-07-16T11:54:27;97863.44;;;13.75;100.00
45872;BME280;32333;55.844;-3.210;2023-07-16T11:56:54;97879.87;;;13.15;100.00
45872;BME280;32333;55.844;-3.210;2023-07-16T11:59:22;97884.03;;;13.86;100.00
45872;BME280;32333;55.844;-3.210;2023-07-16T12:01:49;97881.32;;;14.15;100.00
45872;BME280;32333;55.844;-3.210;2023-07-16T12:04:17;97894.22;;;13.92;100.00
45872;BME280;32333;55.844;-3.210;2023-07-16T12:06:45;97887.66;;;14.23;100.00
45872;BME280;32333;55.844;-3.210;2023-07-16T12:09:13;97891.66;;;13.90;100.00
45872;BME280;32333;55.844;-3.210;2023-07-16T12:11:40;97894.55;;;14.77;100.00
45872;BME280;32333;55.844;-3.210;2023-07-16T12:14:36;97912.77;;;14.79;100.00
45872;BME280;32333;55.844;-3.210;2023-07-16T12:17:03;97916.70;;;14.28;100.00
45872;BME280;32333;55.844;-3.210;2023-07-16T12:19:30;97914.07;;;14.78;100.00
45872;BME280;32333;55.844;-3.210;2023-07-16T12:21:59;97913.23;;;14.71;100.00
45872;BME280;32333;55.844;-3.210;2023-07-16T12:24:27;97927.97;;;14.49;100.00
45872;BME280;32333;55.844;-3.210;2023-07-16T12:26:54;97936.61;;;15.13;100.00
45872;BME280;32333;55.844;-3.210;2023-07-16T12:29:22;97924.64;;;14.83;100.00
45872;BME280;32333;55.844;-3.210;2023-07-16T12:31:49;97945.57;;;14.87;100.00
45872;BME280;32333;55.844;-3.210;2023-07-16T12:34:16;97950.40;;;14.86;100.00
45872;BME280;32333;55.844;-3.210;2023-07-16T12:36:44;97943.65;;;15.31;100.00
45872;BME280;32333;55.844;-3.210;2023-07-16T12:39:11;97952.42;;;13.95;100.00
45872;BME280;32333;55.844;-3.210;2023-07-16T12:41:38;97951.29;;;14.46;100.00
45872;BME280;32333;55.844;-3.210;2023-07-16T12:44:35;97961.44;;;14.24;100.00
45872;BME280;32333;55.844;-3.210;2023-07-16T12:47:02;97950.65;;;13.85;100.00
45872;BME280;32333;55.844;-3.210;2023-07-16T12:49:30;97960.69;;;14.90;100.00
45872;BME280;32333;55.844;-3.210;2023-07-16T12:51:58;97967.04;;;15.05;100.00
45872;BME280;32333;55.844;-3.210;2023-07-16T12:54:25;97951.56;;;14.60;100.00
45872;BME280;32333;55.844;-3.210;2023-07-16T12:56:52;97970.04;;;14.75;100.00
45872;BME280;32333;55.844;-3.210;2023-07-16T12:59:21;97953.84;;;14.66;100.00
45872;BME280;32333;55.844;-3.210;2023-07-16T13:01:49;97967.39;;;14.31;100.00
45872;BME280;32333;55.844;-3.210;2023-07-16T13:04:16;97976.29;;;14.70;100.00
45872;BME280;32333;55.844;-3.210;2023-07-16T13:06:44;97971.97;;;14.52;100.00